Time;durP1;ratioP1;P1;durP2;ratioP2;P2;SDS_P1;SDS_P2;PMS_P1;PMS_P2;Temp;Humidity;BMP_temperature;BMP_pressure;BME280_temperature;BME280_humidity;BME280_pressure;Samples;Min_cycle;Max_cycle;Signal;HPM_P1;HPM_P2
2023/11/04 00:02:39;;;;;;;;;;;;;;;8.74;65.33;95831.16;5065241;28;19931;-77
2023/11/04 00:05:27;;;;;;;;;;;;;;;8.49;66.36;95840.56;5048335;28;19925;-78
2023/11/04 00:08:17;;;;;;;;;;;;;;;8.47;66.17;95832.00;5060773;28;20070;-78
2023/11/04 00:11:05;;;;;;;;;;;;;;;8.35;67.02;95835.53;5071364;28;20414;-77
2023/11/04 00:13:53;;;;;;;;;;;;;;;8.45;66.25;95834.28;5066520;28;20023;-78
2023/11/04 00:16:42;;;;;;;;;;;;;;;8.44;66.39;95832.72;5051680;28;20325;-77
2023/11/04 00:19:30;;;;;;;;;;;;;;;8.49;66.29;95824.34;5059430;28;19972;-77
2023/11/04 00:22:19;;;;;;;;;;;;;;;8.46;66.06;95830.44;5063944;28;19932;-78
2023/11/04 00:25:10;;;;;;;;;;;;;;;8.57;65.93;95837.69;5053218;28;19930;-77
2023/11/04 00:27:58;;;;;;;;;;;;;;;8.44;66.02;95843.53;5085853;28;19924;-77
2023/11/04 00:30:48;;;;;;;;;;;;;;;8.56;65.77;95843.44;5072241;28;19928;-77
2023/11/04 00:33:37;;;;;;;;;;;;;;;8.54;65.60;95849.22;5071338;28;19931;-78
2023/11/04 00:36:25;;;;;;;;;;;;;;;8.38;65.75;95857.31;5083962;28;20023;-77
2023/11/04 00:39:14;;;;;;;;;;;;;;;8.13;67.12;95855.84;5087896;28;19939;-77
2023/11/04 00:42:04;;;;;;;;;;;;;;;8.42;66.15;95862.06;5089775;28;20024;-77
2023/11/04 00:44:52;;;;;;;;;;;;;;;8.38;66.16;95856.53;5085360;28;19924;-77
2023/11/04 00:47:41;;;;;;;;;;;;;;;8.44;65.84;95855.16;5072306;28;20017;-78
2023/11/04 00:50:29;;;;;;;;;;;;;;;8.27;66.55;95861.63;5095673;28;20376;-78
2023/11/04 00:53:19;;;;;;;;;;;;;;;8.29;66.50;95853.16;5086951;28;20014;-77
2023/11/04 00:56:07;;;;;;;;;;;;;;;7.94;67.63;95870.00;5074964;28;19924;-77
2023/11/04 00:58:57;;;;;;;;;;;;;;;8.22;67.20;95872.72;5089978;28;20094;-78
2023/11/04 01:01:45;;;;;;;;;;;;;;;8.29;66.63;95874.81;5074783;28;20007;-78
2023/11/04 01:04:33;;;;;;;;;;;;;;;7.94;67.50;95870.00;5083630;28;19932;-78
2023/11/04 01:07:21;;;;;;;;;;;;;;;7.86;68.37;95871.72;5067150;28;19935;-77
2023/11/04 01:10:10;;;;;;;;;;;;;;;8.09;67.11;95868.47;5072557;28;19931;-79
2023/11/04 01:12:58;;;;;;;;;;;;;;;8.24;66.91;95875.84;5076138;28;19924;-77
2023/11/04 01:15:52;;;;;;;;;;;;;;;8.17;66.83;95872.16;5080708;28;20394;-78
2023/11/04 01:18:41;;;;;;;;;;;;;;;7.91;67.96;95881.50;5084683;28;20396;-77
2023/11/04 01:21:29;;;;;;;;;;;;;;;8.11;67.35;95868.94;5074544;28;20009;-77
2023/11/04 01:24:18;;;;;;;;;;;;;;;8.13;67.09;95872.06;5074416;28;20070;-77
2023/11/04 01:27:08;;;;;;;;;;;;;;;8.18;66.94;95869.09;5080604;28;19924;-78
2023/11/04 01:29:57;;;;;;;;;;;;;;;7.81;68.13;95871.94;5067684;28;19963;-79
2023/11/04 01:32:46;;;;;;;;;;;;;;;8.00;67.73;95867.84;5074264;28;19928;-79
2023/11/04 01:35:34;;;;;;;;;;;;;;;7.97;67.86;95872.00;5065561;28;20008;-78
2023/11/04 01:38:22;;;;;;;;;;;;;;;8.12;67.26;95870.50;5067709;28;20431;-78
2023/11/04 01:41:10;;;;;;;;;;;;;;;7.99;67.23;95875.19;5068920;28;19924;-78
2023/11/04 01:44:01;;;;;;;;;;;;;;;8.14;66.68;95868.22;5067057;28;20778;-78
2023/11/04 01:46:49;;;;;;;;;;;;;;;8.22;66.77;95872.72;5069042;28;20410;-78
2023/11/04 01:49:39;;;;;;;;;;;;;;;8.00;67.50;95857.03;5066588;28;20274;-78
2023/11/04 01:52:27;;;;;;;;;;;;;;;7.98;67.16;95860.06;5059849;28;20389;-77
2023/11/04 01:55:15;;;;;;;;;;;;;;;8.11;66.76;95868.94;5059277;28;20351;-77
2023/11/04 01:58:03;;;;;;;;;;;;;;;8.08;66.96;95875.78;5061302;28;20384;-78
2023/11/04 02:00:51;;;;;;;;;;;;;;;7.95;67.16;95871.59;5078010;28;19929;-78
2023/11/04 02:03:43;;;;;;;;;;;;;;;8.08;66.88;95864.97;5056376;28;19983;-76
2023/11/04 02:06:32;;;;;;;;;;;;;;;8.09;66.79;95860.34;5063248;28;19933;-78
2023/11/04 02:09:20;;;;;;;;;;;;;;;8.05;66.71;95859.50;5065057;28;19975;-77
2023/11/04 02:12:09;;;;;;;;;;;;;;;8.03;66.76;95865.22;5073287;28;19924;-79
2023/11/04 02:14:58;;;;;;;;;;;;;;;8.00;67.00;95867.84;5071230;28;19956;-78
2023/11/04 02:17:46;;;;;;;;;;;;;;;8.01;66.66;95869.41;5078939;28;20368;-78
2023/11/04 02:20:35;;;;;;;;;;;;;;;7.92;67.35;95866.84;5066495;28;19924;-78
2023/11/04 02:23:25;;;;;;;;;;;;;;;7.90;67.37;95873.75;5062219;28;20430;-77
2023/11/04 02:26:13;;;;;;;;;;;;;;;7.62;67.99;95866.41;5051901;28;19924;-78
2023/11/04 02:29:02;;;;;;;;;;;;;;;7.82;67.17;95876.22;5087828;28;19931;-80
2023/11/04 02:31:50;;;;;;;;;;;;;;;7.74;67.63;95869.06;5084870;28;20467;-81
2023/11/04 02:34:38;;;;;;;;;;;;;;;7.92;67.14;95871.47;5085625;28;19931;-82
2023/11/04 02:37:26;;;;;;;;;;;;;;;7.80;67.40;95875.78;5065292;28;20054;-81
2023/11/04 02:40:16;;;;;;;;;;;;;;;7.88;66.88;95871.34;5082357;28;19924;-78
2023/11/04 02:43:05;;;;;;;;;;;;;;;7.93;66.85;95873.03;5072836;28;20406;-78
2023/11/04 02:45:53;;;;;;;;;;;;;;;7.66;67.85;95869.97;5088596;28;19936;-79
2023/11/04 02:48:44;;;;;;;;;;;;;;;7.64;67.52;95866.81;5078688;28;19925;-78
2023/11/04 02:51:34;;;;;;;;;;;;;;;7.56;68.04;95867.72;5068516;28;19928;-78
2023/11/04 02:54:22;;;;;;;;;;;;;;;7.37;68.85;95865.66;5067530;28;19924;-77
2023/11/04 02:57:12;;;;;;;;;;;;;;;7.68;67.73;95862.31;5088168;28;19924;-77
2023/11/04 03:00:00;;;;;;;;;;;;;;;7.63;67.58;95862.56;5081299;28;19927;-78
2023/11/04 03:02:49;;;;;;;;;;;;;;;7.70;67.34;95870.88;5086332;28;20020;-77
2023/11/04 03:05:38;;;;;;;;;;;;;;;7.54;68.36;95867.31;5062687;28;20019;-77
2023/11/04 03:08:26;;;;;;;;;;;;;;;7.51;67.77;95860.69;5061814;28;19975;-77
2023/11/04 03:11:15;;;;;;;;;;;;;;;7.69;67.41;95863.88;5078706;28;19928;-77
2023/11/04 03:14:05;;;;;;;;;;;;;;;7.23;68.38;95863.28;5071517;28;19931;-77
2023/11/04 03:16:53;;;;;;;;;;;;;;;7.51;67.72;95862.56;5075671;28;19930;-77
2023/11/04 03:19:43;;;;;;;;;;;;;;;7.46;67.62;95854.72;5091504;28;19935;-78
2023/11/04 03:22:33;;;;;;;;;;;;;;;7.45;67.92;95856.63;5092637;28;19924;-80
2023/11/04 03:25:21;;;;;;;;;;;;;;;7.34;68.31;95858.22;5088287;28;19936;-78
2023/11/04 03:28:09;;;;;;;;;;;;;;;7.36;68.23;95858.69;5065132;28;20311;-76
2023/11/04 03:30:59;;;;;;;;;;;;;;;7.40;67.70;95859.53;5061645;28;19924;-77
2023/11/04 03:33:47;;;;;;;;;;;;;;;7.28;68.30;95859.56;5070206;28;19925;-77
2023/11/04 03:36:36;;;;;;;;;;;;;;;7.37;68.39;95862.16;5063255;28;19924;-77
2023/11/04 03:39:24;;;;;;;;;;;;;;;7.44;67.83;95852.34;5058152;28;19928;-77
2023/11/04 03:42:14;;;;;;;;;;;;;;;7.06;69.05;95855.44;5078994;28;19946;-77
2023/11/04 03:45:04;;;;;;;;;;;;;;;7.31;68.16;95862.41;5048879;28;19925;-78
2023/11/04 03:47:55;;;;;;;;;;;;;;;7.11;68.79;95855.22;5042611;28;20558;-78
2023/11/04 03:50:43;;;;;;;;;;;;;;;7.20;68.25;95863.97;5070848;28;19924;-78
2023/11/04 03:53:31;;;;;;;;;;;;;;;7.19;68.34;95857.00;5065147;28;19925;-77
2023/11/04 03:56:19;;;;;;;;;;;;;;;7.26;68.40;95849.13;5070431;28;20059;-79
2023/11/04 03:59:07;;;;;;;;;;;;;;;7.28;68.55;95854.97;5060947;28;20326;-77
2023/11/04 04:01:55;;;;;;;;;;;;;;;7.28;68.22;95852.25;5052400;28;19929;-77
2023/11/04 04:04:44;;;;;;;;;;;;;;;7.25;68.16;95849.47;5073371;28;20018;-78
2023/11/04 04:07:33;;;;;;;;;;;;;;;7.30;67.99;95862.75;5054375;28;19924;-78
2023/11/04 04:10:21;;;;;;;;;;;;;;;7.31;68.07;95848.88;5057362;28;19932;-78
2023/11/04 04:13:09;;;;;;;;;;;;;;;7.40;68.01;95847.97;5059991;28;19924;-78
2023/11/04 04:16:00;;;;;;;;;;;;;;;7.33;67.97;95845.84;5074913;28;19932;-78
2023/11/04 04:18:48;;;;;;;;;;;;;;;7.29;67.83;95840.31;5057042;28;19931;-77
2023/11/04 04:21:38;;;;;;;;;;;;;;;6.91;69.26;95829.13;5067964;28;19932;-78
2023/11/04 04:24:27;;;;;;;;;;;;;;;7.05;69.10;95827.66;5055020;28;20003;-78
2023/11/04 04:27:15;;;;;;;;;;;;;;;7.00;69.02;95822.47;5085407;28;20010;-78
2023/11/04 04:30:04;;;;;;;;;;;;;;;7.26;68.39;95832.91;5084304;28;19924;-78
2023/11/04 04:32:53;;;;;;;;;;;;;;;7.06;68.87;95826.53;5082431;28;20379;-77
2023/11/04 04:35:43;;;;;;;;;;;;;;;7.24;68.32;95827.03;5085278;28;20293;-79
2023/11/04 04:38:32;;;;;;;;;;;;;;;7.05;68.46;95830.34;5097700;28;19925;-77
2023/11/04 04:41:20;;;;;;;;;;;;;;;7.23;68.37;95817.38;5078789;28;19932;-78
2023/11/04 04:44:08;;;;;;;;;;;;;;;7.28;68.09;95811.75;5067415;28;19947;-78
2023/11/04 04:46:57;;;;;;;;;;;;;;;7.27;67.98;95812.88;5075666;28;19925;-79
2023/11/04 04:49:45;;;;;;;;;;;;;;;7.07;68.41;95813.81;5079483;28;19925;-78
2023/11/04 04:52:33;;;;;;;;;;;;;;;7.19;68.67;95813.00;5092956;28;19931;-78
2023/11/04 04:55:22;;;;;;;;;;;;;;;6.95;69.61;95805.72;5092530;28;20798;-78
2023/11/04 04:58:11;;;;;;;;;;;;;;;7.20;68.83;95809.97;5088823;28;19925;-78
2023/11/04 05:01:02;;;;;;;;;;;;;;;7.30;68.69;95798.69;5084988;28;20120;-78
2023/11/04 05:03:50;;;;;;;;;;;;;;;7.44;68.15;95803.72;5092538;28;20411;-78
2023/11/04 05:06:39;;;;;;;;;;;;;;;7.26;68.92;95797.03;5085848;28;19954;-77
2023/11/04 05:09:27;;;;;;;;;;;;;;;7.35;69.25;95798.47;5082588;28;19931;-78
2023/11/04 05:12:19;;;;;;;;;;;;;;;7.44;68.57;95795.59;5077255;28;19923;-79
2023/11/04 05:15:08;;;;;;;;;;;;;;;7.45;68.53;95783.66;5092098;28;20435;-78
2023/11/04 05:17:56;;;;;;;;;;;;;;;7.54;68.47;95778.91;5097556;28;20007;-78
2023/11/04 05:20:45;;;;;;;;;;;;;;;7.83;67.23;95785.91;5070920;28;19925;-78
2023/11/04 05:23:33;;;;;;;;;;;;;;;7.78;66.86;95783.44;5083017;28;19924;-78
2023/11/04 05:26:21;;;;;;;;;;;;;;;7.76;67.09;95779.50;5096094;28;19924;-77
2023/11/04 05:29:11;;;;;;;;;;;;;;;8.08;66.48;95778.44;5097466;28;19931;-78
2023/11/04 05:32:00;;;;;;;;;;;;;;;8.25;65.45;95780.03;5086773;28;19924;-78
2023/11/04 05:34:48;;;;;;;;;;;;;;;8.24;65.86;95778.47;5089848;28;19924;-78
2023/11/04 05:37:37;;;;;;;;;;;;;;;8.34;65.33;95775.25;5090545;28;19969;-78
2023/11/04 05:40:26;;;;;;;;;;;;;;;8.30;65.51;95768.16;5094151;28;19951;-82
2023/11/04 05:43:14;;;;;;;;;;;;;;;8.01;66.26;95766.66;5093480;28;20300;-79
2023/11/04 05:46:04;;;;;;;;;;;;;;;8.37;65.50;95763.75;5072709;28;20283;-78
2023/11/04 05:48:52;;;;;;;;;;;;;;;8.22;65.93;95755.59;5086098;28;19924;-78
2023/11/04 05:51:41;;;;;;;;;;;;;;;8.42;65.23;95759.22;5088218;28;19924;-78
2023/11/04 05:54:31;;;;;;;;;;;;;;;8.38;65.36;95762.63;5070911;28;19926;-78
2023/11/04 05:57:20;;;;;;;;;;;;;;;8.45;64.95;95761.22;5093078;28;19928;-78
2023/11/04 06:00:11;;;;;;;;;;;;;;;8.56;64.63;95754.13;5088074;28;19925;-80
2023/11/04 06:03:00;;;;;;;;;;;;;;;8.47;65.14;95745.41;5079821;28;19930;-78
2023/11/04 06:05:51;;;;;;;;;;;;;;;8.04;66.03;95744.31;5091935;28;19993;-78
2023/11/04 06:08:39;;;;;;;;;;;;;;;8.29;65.31;95736.84;5077502;28;19924;-78
2023/11/04 06:11:28;;;;;;;;;;;;;;;7.91;66.74;95740.13;5074048;28;20018;-78
2023/11/04 06:14:16;;;;;;;;;;;;;;;8.08;65.64;95742.50;5092943;28;20069;-78
2023/11/04 06:17:04;;;;;;;;;;;;;;;7.76;67.40;95744.38;5086508;28;19924;-79
2023/11/04 06:19:54;;;;;;;;;;;;;;;7.88;66.61;95736.19;5077304;28;19925;-77
2023/11/04 06:22:43;;;;;;;;;;;;;;;7.81;66.74;95736.78;5078749;28;19931;-78
2023/11/04 06:25:31;;;;;;;;;;;;;;;8.11;66.01;95722.88;5074344;28;20280;-78
2023/11/04 06:28:19;;;;;;;;;;;;;;;8.22;66.18;95732.03;5069857;28;19948;-78
2023/11/04 06:31:12;;;;;;;;;;;;;;;8.06;65.69;95721.22;5054157;28;20387;-78
2023/11/04 06:34:01;;;;;;;;;;;;;;;8.01;66.07;95718.78;5069565;28;20059;-78
2023/11/04 06:36:51;;;;;;;;;;;;;;;8.23;66.02;95720.09;5069935;28;19928;-78
2023/11/04 06:39:39;;;;;;;;;;;;;;;8.13;65.96;95728.72;5070998;28;19932;-79
2023/11/04 06:42:30;;;;;;;;;;;;;;;8.20;65.93;95720.78;5067916;28;20418;-78
2023/11/04 06:45:18;;;;;;;;;;;;;;;8.47;65.36;95718.34;5069977;28;20299;-80
2023/11/04 06:48:10;;;;;;;;;;;;;;;8.61;64.57;95714.06;5057917;28;19925;-87
2023/11/04 06:50:59;;;;;;;;;;;;;;;8.74;64.32;95730.22;5064106;28;19966;-88
2023/11/04 06:53:50;;;;;;;;;;;;;;;8.77;63.68;95721.38;5069921;28;20406;-87
2023/11/04 06:56:39;;;;;;;;;;;;;;;8.92;63.53;95724.03;5072757;28;19924;-87
2023/11/04 06:59:27;;;;;;;;;;;;;;;8.88;63.60;95717.75;5061453;28;19935;-86
2023/11/04 07:02:16;;;;;;;;;;;;;;;8.84;63.76;95710.69;5069465;28;20015;-87
2023/11/04 07:05:09;;;;;;;;;;;;;;;8.90;64.49;95718.19;5068572;28;19931;-84
2023/11/04 07:07:58;;;;;;;;;;;;;;;9.04;63.65;95714.22;5070633;28;20022;-79
2023/11/04 07:10:48;;;;;;;;;;;;;;;8.88;63.84;95706.13;5075803;28;19964;-82
2023/11/04 07:13:40;;;;;;;;;;;;;;;9.06;63.23;95706.53;5067496;28;20291;-79
2023/11/04 07:16:29;;;;;;;;;;;;;;;9.01;63.26;95704.13;5064878;28;19956;-76
2023/11/04 07:19:17;;;;;;;;;;;;;;;8.85;63.67;95702.22;5068858;28;19956;-77
2023/11/04 07:22:05;;;;;;;;;;;;;;;8.70;65.01;95700.34;5053866;28;20264;-77
2023/11/04 07:24:58;;;;;;;;;;;;;;;8.72;64.70;95697.28;5055609;28;19931;-79
2023/11/04 07:27:47;;;;;;;;;;;;;;;8.79;64.76;95689.31;5054673;28;20021;-83
2023/11/04 07:30:39;;;;;;;;;;;;;;;8.82;64.05;95692.09;5069326;28;19929;-78
2023/11/04 07:33:27;;;;;;;;;;;;;;;8.84;64.54;95695.25;5067306;28;19924;-78
2023/11/04 07:36:22;;;;;;;;;;;;;;;8.87;64.46;95689.13;5067707;28;19932;-76
2023/11/04 07:39:11;;;;;;;;;;;;;;;8.74;64.42;95690.38;5068296;28;19925;-78
2023/11/04 07:42:00;;;;;;;;;;;;;;;8.65;65.67;95689.78;5059439;28;19924;-78
2023/11/04 07:44:51;;;;;;;;;;;;;;;8.60;65.51;95679.22;5062210;28;19928;-79
2023/11/04 07:47:40;;;;;;;;;;;;;;;8.81;64.95;95679.72;5067529;28;19939;-78
2023/11/04 07:50:29;;;;;;;;;;;;;;;8.88;64.31;95671.72;5064460;28;19963;-77
2023/11/04 07:53:17;;;;;;;;;;;;;;;8.93;64.16;95666.03;5066824;28;19954;-80
2023/11/04 07:56:06;;;;;;;;;;;;;;;8.79;64.35;95665.75;5074380;28;20398;-78
2023/11/04 07:58:54;;;;;;;;;;;;;;;8.95;64.08;95654.88;5068904;28;20318;-80
2023/11/04 08:01:44;;;;;;;;;;;;;;;9.09;63.55;95657.84;5073582;28;19924;-82
2023/11/04 08:04:32;;;;;;;;;;;;;;;9.23;63.02;95651.16;5072446;28;20080;-80
2023/11/04 08:07:22;;;;;;;;;;;;;;;9.29;63.24;95642.38;5055578;28;20070;-80
2023/11/04 08:10:10;;;;;;;;;;;;;;;9.19;63.52;95646.44;5070640;28;19977;-79
2023/11/04 08:12:58;;;;;;;;;;;;;;;9.31;63.90;95650.91;5065951;28;20303;-82
2023/11/04 08:15:47;;;;;;;;;;;;;;;9.33;63.18;95640.53;5071571;28;20296;-78
2023/11/04 08:18:37;;;;;;;;;;;;;;;9.33;63.11;95634.31;5067622;28;19932;-78
2023/11/04 08:21:29;;;;;;;;;;;;;;;9.35;62.34;95629.31;5065546;28;19929;-76
2023/11/04 08:24:17;;;;;;;;;;;;;;;9.40;61.99;95618.97;5055693;28;19925;-77
2023/11/04 08:27:06;;;;;;;;;;;;;;;9.43;61.33;95612.84;5060452;28;19924;-78
2023/11/04 08:29:54;;;;;;;;;;;;;;;9.47;61.46;95610.19;5085613;28;19932;-81
2023/11/04 08:32:42;;;;;;;;;;;;;;;9.44;61.94;95616.34;5071071;28;19924;-85
2023/11/04 08:35:32;;;;;;;;;;;;;;;9.50;61.37;95614.09;5071166;28;19993;-79
2023/11/04 08:38:20;;;;;;;;;;;;;;;9.48;60.49;95611.75;5072601;28;21158;-80
2023/11/04 08:41:08;;;;;;;;;;;;;;;9.45;60.69;95604.34;5069974;28;19924;-80
2023/11/04 08:43:56;;;;;;;;;;;;;;;9.49;61.08;95599.00;5074625;28;19924;-80
2023/11/04 08:46:44;;;;;;;;;;;;;;;9.42;61.36;95605.06;5071151;28;19931;-80
2023/11/04 08:49:32;;;;;;;;;;;;;;;9.41;61.03;95606.19;5083667;28;19950;-81
2023/11/04 08:52:23;;;;;;;;;;;;;;;9.47;61.01;95603.97;5070194;28;19924;-82
2023/11/04 08:55:11;;;;;;;;;;;;;;;9.49;61.47;95604.41;5078208;28;19924;-80
2023/11/04 08:57:59;;;;;;;;;;;;;;;9.59;61.78;95595.69;5087820;28;20045;-79
2023/11/04 09:00:47;;;;;;;;;;;;;;;9.64;60.91;95596.16;5083672;28;19947;-81
2023/11/04 09:03:35;;;;;;;;;;;;;;;9.67;60.34;95594.66;5075088;28;19924;-81
2023/11/04 09:06:31;;;;;;;;;;;;;;;9.59;60.74;95579.44;5072892;28;20299;-81
2023/11/04 09:09:22;;;;;;;;;;;;;;;9.76;60.32;95580.88;5087519;28;20026;-81
2023/11/04 09:12:11;;;;;;;;;;;;;;;9.67;60.69;95572.97;5074930;28;19925;-83
2023/11/04 09:15:01;;;;;;;;;;;;;;;9.81;60.35;95577.84;5070264;28;19924;-81
2023/11/04 09:17:50;;;;;;;;;;;;;;;9.85;59.86;95571.31;5076013;28;20037;-80
2023/11/04 09:20:38;;;;;;;;;;;;;;;9.93;60.23;95559.44;5079504;28;19933;-81
2023/11/04 09:23:27;;;;;;;;;;;;;;;9.70;59.85;95554.06;5067978;28;19924;-80
2023/11/04 09:26:16;;;;;;;;;;;;;;;9.80;60.28;95544.53;5077092;28;19925;-81
2023/11/04 09:29:05;;;;;;;;;;;;;;;10.01;59.13;95549.47;5066436;28;20407;-81
2023/11/04 09:31:54;;;;;;;;;;;;;;;10.05;59.15;95557.69;5074870;28;20228;-80
2023/11/04 09:34:42;;;;;;;;;;;;;;;10.00;59.28;95553.34;5091194;28;19930;-81
2023/11/04 09:37:31;;;;;;;;;;;;;;;9.89;59.35;95549.69;5089517;28;19931;-81
2023/11/04 09:40:19;;;;;;;;;;;;;;;9.89;58.74;95539.63;5092576;28;19950;-80
2023/11/04 09:43:09;;;;;;;;;;;;;;;9.95;59.89;95550.94;5067460;28;20047;-80
2023/11/04 09:45:58;;;;;;;;;;;;;;;10.04;59.15;95556.13;5072688;28;20441;-80
2023/11/04 09:48:47;;;;;;;;;;;;;;;10.16;58.30;95543.13;5069641;28;19931;-81
2023/11/04 09:51:36;;;;;;;;;;;;;;;10.14;58.30;95541.94;5090909;28;19925;-81
2023/11/04 09:54:24;;;;;;;;;;;;;;;10.17;57.91;95533.84;5083123;28;20269;-86
2023/11/04 09:57:14;;;;;;;;;;;;;;;10.06;58.42;95529.38;5094005;28;19924;-88
2023/11/04 10:00:05;;;;;;;;;;;;;;;10.20;57.65;95516.03;5080061;28;20014;-87
2023/11/04 10:02:59;;;;;;;;;;;;;;;10.23;56.77;95512.59;5087255;28;19936;-89
2023/11/04 10:05:48;;;;;;;;;;;;;;;10.25;56.20;95507.59;5079741;28;20375;-87
2023/11/04 10:08:36;;;;;;;;;;;;;;;10.27;56.26;95507.22;5083495;28;19928;-87
2023/11/04 10:11:25;;;;;;;;;;;;;;;10.34;56.02;95505.41;5072686;28;19928;-85
2023/11/04 10:14:13;;;;;;;;;;;;;;;10.28;56.69;95493.31;5086141;28;19993;-82
2023/11/04 10:17:02;;;;;;;;;;;;;;;10.47;56.42;95498.59;5086290;28;19928;-84
2023/11/04 10:19:50;;;;;;;;;;;;;;;10.61;55.33;95502.63;5090555;28;19935;-80
2023/11/04 10:22:38;;;;;;;;;;;;;;;10.68;54.99;95495.34;5068815;28;20383;-80
2023/11/04 10:25:27;;;;;;;;;;;;;;;10.74;54.98;95488.44;5067410;28;20299;-79
2023/11/04 10:28:17;;;;;;;;;;;;;;;10.80;53.92;95488.09;5070134;28;19925;-81
2023/11/04 10:31:05;;;;;;;;;;;;;;;10.91;54.84;95464.53;5071391;28;19931;-82
2023/11/04 10:33:56;;;;;;;;;;;;;;;11.00;56.14;95465.81;5086407;28;20444;-81
2023/11/04 10:36:46;;;;;;;;;;;;;;;10.97;55.77;95457.63;5072127;28;19925;-79
2023/11/04 10:39:34;;;;;;;;;;;;;;;10.93;54.60;95435.88;5081931;28;20399;-78
2023/11/04 10:42:24;;;;;;;;;;;;;;;11.00;54.02;95429.72;5062686;28;19925;-80
2023/11/04 10:45:14;;;;;;;;;;;;;;;11.05;53.52;95415.00;5058458;28;19932;-79
2023/11/04 10:48:03;;;;;;;;;;;;;;;11.17;53.53;95409.28;5061065;28;19931;-78
2023/11/04 10:50:55;;;;;;;;;;;;;;;11.12;54.52;95415.06;5066616;28;20366;-78
2023/11/04 10:53:44;;;;;;;;;;;;;;;11.15;53.99;95400.72;5067155;28;20403;-78
2023/11/04 10:56:34;;;;;;;;;;;;;;;11.18;53.49;95398.03;5075736;28;20236;-78
2023/11/04 10:59:24;;;;;;;;;;;;;;;11.26;53.16;95393.44;5082562;28;20461;-78
2023/11/04 11:02:12;;;;;;;;;;;;;;;11.34;53.22;95395.03;5071587;28;20419;-78
2023/11/04 11:05:00;;;;;;;;;;;;;;;11.34;53.01;95388.84;5063473;28;19924;-78
2023/11/04 11:07:50;;;;;;;;;;;;;;;11.31;52.53;95371.34;5066087;28;19925;-79
2023/11/04 11:10:39;;;;;;;;;;;;;;;11.36;53.01;95360.13;5066700;28;19924;-80
2023/11/04 11:13:28;;;;;;;;;;;;;;;11.46;52.27;95345.06;5061985;28;19924;-79
2023/11/04 11:16:17;;;;;;;;;;;;;;;11.45;53.80;95340.75;5066220;28;20372;-81
2023/11/04 11:19:08;;;;;;;;;;;;;;;11.54;52.43;95341.97;5061418;28;19962;-81
2023/11/04 11:21:57;;;;;;;;;;;;;;;11.61;51.89;95330.38;5069957;28;19924;-79
2023/11/04 11:24:50;;;;;;;;;;;;;;;11.72;51.39;95328.50;5062102;28;19932;-82
2023/11/04 11:27:45;;;;;;;;;;;;;;;11.82;50.90;95316.09;5079410;28;19928;-80
2023/11/04 11:30:39;;;;;;;;;;;;;;;11.75;51.95;95303.22;5070893;28;19967;-78
2023/11/04 11:33:28;;;;;;;;;;;;;;;11.95;51.29;95298.28;5090260;28;19931;-81
2023/11/04 11:36:19;;;;;;;;;;;;;;;12.00;51.72;95289.00;5074244;28;19924;-81
2023/11/04 11:39:08;;;;;;;;;;;;;;;11.96;51.70;95297.13;5075223;28;19987;-81
2023/11/04 11:41:59;;;;;;;;;;;;;;;11.97;52.37;95292.47;5069025;28;20298;-83
2023/11/04 11:44:47;;;;;;;;;;;;;;;11.67;53.44;95293.50;5076063;28;19931;-76
2023/11/04 11:47:35;;;;;;;;;;;;;;;11.82;54.04;95279.97;5087173;28;20379;-77
2023/11/04 11:50:24;;;;;;;;;;;;;;;11.78;53.01;95274.50;5071118;28;19924;-77
2023/11/04 11:53:13;;;;;;;;;;;;;;;11.74;53.86;95271.75;5066712;28;19925;-77
2023/11/04 11:56:02;;;;;;;;;;;;;;;11.82;52.62;95263.66;5080987;28;20268;-77
2023/11/04 11:58:51;;;;;;;;;;;;;;;11.99;52.33;95260.22;5086026;28;19924;-82
2023/11/04 12:01:39;;;;;;;;;;;;;;;12.00;53.40;95261.78;5082386;28;19924;-79
2023/11/04 12:04:28;;;;;;;;;;;;;;;12.06;52.82;95255.56;5075789;28;19939;-79
2023/11/04 12:07:17;;;;;;;;;;;;;;;12.08;52.44;95263.34;5084277;28;19924;-77
2023/11/04 12:10:09;;;;;;;;;;;;;;;12.14;52.20;95252.84;5077067;28;19932;-78
2023/11/04 12:12:59;;;;;;;;;;;;;;;12.09;53.55;95253.22;5085230;28;19924;-77
2023/11/04 12:15:52;;;;;;;;;;;;;;;12.28;52.53;95244.72;5076990;28;20028;-84
2023/11/04 12:18:40;;;;;;;;;;;;;;;12.21;51.93;95239.28;5072592;28;19924;-83
2023/11/04 12:21:29;;;;;;;;;;;;;;;12.01;52.67;95230.69;5094642;28;20291;-81
2023/11/04 12:24:18;;;;;;;;;;;;;;;11.96;52.43;95220.16;5092945;28;19925;-86
2023/11/04 12:27:06;;;;;;;;;;;;;;;11.95;52.58;95215.91;5085981;28;20287;-78
2023/11/04 12:29:55;;;;;;;;;;;;;;;11.95;53.13;95218.63;5092239;28;20269;-80
2023/11/04 12:32:46;;;;;;;;;;;;;;;11.86;52.41;95213.53;5079641;28;19924;-80
2023/11/04 12:35:35;;;;;;;;;;;;;;;11.80;52.72;95221.25;5091807;28;20027;-80
2023/11/04 12:38:23;;;;;;;;;;;;;;;11.78;52.95;95201.06;5095012;28;20073;-79
2023/11/04 12:41:11;;;;;;;;;;;;;;;11.83;52.92;95198.00;5087817;28;19959;-80
2023/11/04 12:44:01;;;;;;;;;;;;;;;11.79;53.92;95195.22;5091791;28;19924;-79
2023/11/04 12:46:50;;;;;;;;;;;;;;;11.98;53.36;95193.34;5077954;28;19924;-79
2023/11/04 12:49:40;;;;;;;;;;;;;;;12.03;52.92;95191.03;5079368;28;20024;-79
2023/11/04 12:52:30;;;;;;;;;;;;;;;12.03;52.53;95190.25;5066276;28;19924;-80
2023/11/04 12:55:18;;;;;;;;;;;;;;;12.03;51.68;95180.13;5090156;28;20467;-79
2023/11/04 12:58:06;;;;;;;;;;;;;;;11.98;52.89;95171.56;5068552;28;19924;-79
2023/11/04 13:00:55;;;;;;;;;;;;;;;11.97;52.50;95172.75;5086583;28;19984;-79
2023/11/04 13:03:43;;;;;;;;;;;;;;;11.97;51.91;95164.59;5085120;28;19936;-79
2023/11/04 13:06:32;;;;;;;;;;;;;;;11.93;50.93;95161.06;5088918;28;20046;-79
2023/11/04 13:09:21;;;;;;;;;;;;;;;11.84;51.88;95156.03;5075449;28;19978;-79
2023/11/04 13:12:10;;;;;;;;;;;;;;;11.87;52.13;95155.25;5074713;28;19940;-79
2023/11/04 13:14:58;;;;;;;;;;;;;;;11.83;51.93;95142.81;5072877;28;19924;-78
2023/11/04 13:17:46;;;;;;;;;;;;;;;11.91;51.56;95131.53;5059748;28;19924;-79
2023/11/04 13:20:34;;;;;;;;;;;;;;;11.85;51.38;95130.38;5085743;28;20018;-80
2023/11/04 13:23:24;;;;;;;;;;;;;;;11.87;52.22;95132.69;5080695;28;19984;-79
2023/11/04 13:26:12;;;;;;;;;;;;;;;11.85;52.28;95111.34;5078243;28;19924;-79
2023/11/04 13:29:01;;;;;;;;;;;;;;;11.77;51.30;95107.00;5087700;28;19931;-79
2023/11/04 13:31:49;;;;;;;;;;;;;;;11.90;51.40;95100.06;5078349;28;19985;-79
2023/11/04 13:34:37;;;;;;;;;;;;;;;11.78;52.18;95089.56;5090956;28;20053;-79
2023/11/04 13:37:25;;;;;;;;;;;;;;;11.78;51.68;95084.88;5079399;28;19928;-79
2023/11/04 13:40:14;;;;;;;;;;;;;;;11.74;52.59;95067.00;5087043;28;20452;-79
2023/11/04 13:43:02;;;;;;;;;;;;;;;11.83;50.96;95061.22;5076210;28;20268;-78
2023/11/04 13:45:51;;;;;;;;;;;;;;;11.76;52.15;95056.50;5088518;28;19963;-79
2023/11/04 13:48:39;;;;;;;;;;;;;;;11.69;51.22;95034.75;5077924;28;19973;-80
2023/11/04 13:51:27;;;;;;;;;;;;;;;11.74;52.05;95032.41;5093471;28;20405;-79
2023/11/04 13:54:15;;;;;;;;;;;;;;;11.85;52.17;95029.72;5089413;28;19924;-79
2023/11/04 13:57:05;;;;;;;;;;;;;;;11.79;52.42;95037.47;5086948;28;20938;-79
2023/11/04 13:59:52;;;;;;;;;;;;;;;11.73;51.93;95057.28;5072684;28;19931;-79
2023/11/04 14:02:41;;;;;;;;;;;;;;;11.79;52.73;95093.81;5075690;28;19979;-79
2023/11/04 14:05:30;;;;;;;;;;;;;;;11.83;53.21;95056.56;5070493;28;20042;-76
2023/11/04 14:08:19;;;;;;;;;;;;;;;11.94;52.63;95037.50;5077740;28;19927;-75
2023/11/04 14:11:08;;;;;;;;;;;;;;;11.96;52.40;95040.59;5073299;28;19931;-75
2023/11/04 14:13:57;;;;;;;;;;;;;;;11.93;50.64;95050.34;5073124;28;19924;-76
2023/11/04 14:16:45;;;;;;;;;;;;;;;11.97;50.93;95047.59;5070517;28;19932;-76
2023/11/04 14:19:33;;;;;;;;;;;;;;;11.90;50.48;95028.56;5075589;28;19924;-78
2023/11/04 14:22:21;;;;;;;;;;;;;;;11.73;50.57;95008.34;5071489;28;19925;-78
2023/11/04 14:25:10;;;;;;;;;;;;;;;11.78;50.78;94997.06;5087845;28;19924;-79
2023/11/04 14:27:58;;;;;;;;;;;;;;;11.72;50.11;94971.44;5088521;28;19947;-79
2023/11/04 14:30:50;;;;;;;;;;;;;;;11.65;49.85;94963.25;5085768;28;19924;-83
2023/11/04 14:33:41;;;;;;;;;;;;;;;11.72;49.50;94983.09;5083651;28;19924;-84
2023/11/04 14:36:29;;;;;;;;;;;;;;;11.77;49.92;94981.91;5083558;28;19931;-85
2023/11/04 14:39:18;;;;;;;;;;;;;;;11.72;49.07;94979.59;5089121;28;19959;-80
2023/11/04 14:42:07;;;;;;;;;;;;;;;11.70;48.99;94981.91;5067300;28;19978;-81
2023/11/04 14:44:56;;;;;;;;;;;;;;;11.74;49.13;94969.09;5066950;28;19928;-82
2023/11/04 14:47:45;;;;;;;;;;;;;;;11.64;49.90;94988.91;5077666;28;19970;-81